Wetterdaten: aktuell Freitag, 19.01.2018 00:15
Datum Zeit Temp. A. Feuchte A. Luftdruck Regen Wind Richtung Richtung Taupunkt Windchill Windben
19.01.2018 00:15 3,0 C 94 % 1005,5 hPa 0,0 l/m 18,0 km/h (3 Bft) SW 229 2,1 C -4,9 C 25,7 km/h (4 Bft)
19.01.2018 00:10 3,0 C 94 % 1005,6 hPa 0,0 l/m 18,7 km/h (3 Bft) SW 233 2,1 C -5,2 C 24,1 km/h (4 Bft)
19.01.2018 00:05 3,0 C 94 % 1005,6 hPa 0,0 l/m 15,3 km/h (3 Bft) W-SW 242 2,1 C -3,5 C 20,9 km/h (4 Bft)
19.01.2018 00:00 3,0 C 94 % 1005,7 hPa 0,0 l/m 16,4 km/h (3 Bft) SW 218 2,1 C -4,1 C 20,9 km/h (4 Bft)
18.01.2018 23:55 3,0 C 94 % 1005,8 hPa 0,0 l/m 11,1 km/h (2 Bft) SW 218 2,1 C -0,9 C 19,3 km/h (3 Bft)
18.01.2018 23:50 3,0 C 94 % 1005,9 hPa 0,0 l/m 15,0 km/h (3 Bft) SW 234 2,1 C -3,3 C 20,9 km/h (4 Bft)
18.01.2018 23:45 3,0 C 94 % 1006,1 hPa 0,0 l/m 12,9 km/h (3 Bft) SW 225 2,1 C -2,1 C 19,3 km/h (3 Bft)
18.01.2018 23:40 3,0 C 94 % 1006,0 hPa 0,0 l/m 9,6 km/h (2 Bft) SW 223 2,1 C 0,2 C 14,5 km/h (3 Bft)
18.01.2018 23:35 3,0 C 94 % 1006,3 hPa 0,0 l/m 10,6 km/h (2 Bft) SW 220 2,1 C -0,6 C 16,1 km/h (3 Bft)
18.01.2018 23:30 3,1 C 93 % 1006,1 hPa 0,0 l/m 8,9 km/h (2 Bft) SW 236 2,1 C 0,8 C 14,5 km/h (3 Bft)
18.01.2018 23:25 3,1 C 93 % 1005,9 hPa 0,0 l/m 9,4 km/h (2 Bft) W 271 2,1 C 0,4 C 14,5 km/h (3 Bft)
18.01.2018 23:20 3,1 C 93 % 1005,6 hPa 0,0 l/m 9,3 km/h (2 Bft) W 263 2,1 C 0,5 C 14,5 km/h (3 Bft)
18.01.2018 23:15 3,2 C 92 % 1005,7 hPa 0,0 l/m 11,8 km/h (2 Bft) W-SW 244 2,0 C -1,2 C 17,7 km/h (3 Bft)
18.01.2018 23:10 3,2 C 92 % 1005,9 hPa 0,0 l/m 12,2 km/h (2 Bft) SW 230 2,0 C -1,4 C 17,7 km/h (3 Bft)
18.01.2018 23:05 3,2 C 92 % 1006,0 hPa 0,0 l/m 12,4 km/h (2 Bft) SW 234 2,0 C -1,6 C 19,3 km/h (3 Bft)
18.01.2018 23:00 3,2 C 92 % 1006,1 hPa 0,0 l/m 13,6 km/h (3 Bft) W-SW 243 2,0 C -2,3 C 19,3 km/h (3 Bft)
18.01.2018 22:55 3,3 C 92 % 1005,9 hPa 0,0 l/m 13,3 km/h (3 Bft) W-SW 243 2,1 C -2,0 C 17,7 km/h (3 Bft)
18.01.2018 22:50 3,3 C 92 % 1006,1 hPa 0,0 l/m 14,3 km/h (3 Bft) W-SW 258 2,1 C -2,6 C 20,9 km/h (4 Bft)
18.01.2018 22:45 3,3 C 91 % 1005,8 hPa 0,0 l/m 16,1 km/h (3 Bft) W-SW 246 2,0 C -3,6 C 20,9 km/h (4 Bft)
18.01.2018 22:40 3,3 C 91 % 1006,2 hPa 0,0 l/m 18,9 km/h (3 Bft) W-SW 239 2,0 C -4,9 C 25,7 km/h (4 Bft)
18.01.2018 22:35 3,3 C 91 % 1006,0 hPa 0,0 l/m 19,0 km/h (3 Bft) W-SW 238 2,0 C -4,9 C 24,1 km/h (4 Bft)
18.01.2018 22:30 3,3 C 91 % 1005,9 hPa 0,0 l/m 19,5 km/h (3 Bft) W-SW 237 2,0 C -5,2 C 24,1 km/h (4 Bft)
18.01.2018 22:25 3,3 C 91 % 1006,0 hPa 0,0 l/m 20,1 km/h (4 Bft) W-SW 238 2,0 C -5,4 C 27,4 km/h (5 Bft)
18.01.2018 22:20 3,3 C 91 % 1006,1 hPa 0,0 l/m 21,3 km/h (4 Bft) W-SW 242 2,0 C -5,9 C 27,4 km/h (5 Bft)
18.01.2018 22:15 3,3 C 91 % 1006,1 hPa 0,0 l/m 24,1 km/h (4 Bft) W-SW 247 2,0 C -6,9 C 37,0 km/h (5 Bft)
18.01.2018 22:10 3,3 C 91 % 1006,0 hPa 0,0 l/m 23,8 km/h (4 Bft) W-SW 240 2,0 C -6,8 C 29,0 km/h (5 Bft)
18.01.2018 22:05 3,3 C 91 % 1006,0 hPa 0,0 l/m 21,7 km/h (4 Bft) W-SW 244 2,0 C -6,1 C 29,0 km/h (5 Bft)
18.01.2018 22:00 3,4 C 91 % 1005,9 hPa 0,0 l/m 23,7 km/h (4 Bft) SW 235 2,1 C -6,7 C 30,6 km/h (5 Bft)
18.01.2018 21:55 3,4 C 91 % 1006,0 hPa 0,0 l/m 23,8 km/h (4 Bft) W-SW 249 2,1 C -6,7 C 35,4 km/h (5 Bft)
18.01.2018 21:50 3,4 C 91 % 1005,9 hPa 0,0 l/m 25,4 km/h (4 Bft) W-SW 239 2,1 C -7,2 C 33,8 km/h (5 Bft)
18.01.2018 21:45 3,4 C 91 % 1005,7 hPa 0,0 l/m 22,5 km/h (4 Bft) W-SW 241 2,1 C -6,2 C 27,4 km/h (5 Bft)
18.01.2018 21:40 3,4 C 91 % 1005,6 hPa 0,0 l/m 24,3 km/h (4 Bft) W-SW 246 2,1 C -6,9 C 30,6 km/h (5 Bft)
18.01.2018 21:35 3,4 C 90 % 1005,8 hPa 0,0 l/m 25,2 km/h (4 Bft) W-SW 248 1,9 C -7,2 C 37,0 km/h (5 Bft)
18.01.2018 21:30 3,5 C 90 % 1005,8 hPa 0,0 l/m 21,7 km/h (4 Bft) W-SW 256 2,0 C -5,8 C 27,4 km/h (5 Bft)
18.01.2018 21:25 3,6 C 90 % 1005,9 hPa 0,0 l/m 24,6 km/h (4 Bft) W-SW 247 2,1 C -6,7 C 32,2 km/h (5 Bft)
18.01.2018 21:20 3,6 C 90 % 1005,6 hPa 0,0 l/m 26,8 km/h (4 Bft) W-SW 250 2,1 C -7,4 C 38,6 km/h (6 Bft)
18.01.2018 21:15 3,5 C 91 % 1005,6 hPa 0,0 l/m 29,3 km/h (5 Bft) W-SW 247 2,2 C -8,3 C 41,8 km/h (6 Bft)
18.01.2018 21:10 3,4 C 91 % 1005,6 hPa 0,0 l/m 27,9 km/h (5 Bft) W-SW 255 2,1 C -8,0 C 40,2 km/h (6 Bft)
18.01.2018 21:05 3,3 C 92 % 1005,7 hPa 0,0 l/m 24,8 km/h (4 Bft) W-SW 244 2,1 C -7,2 C 38,6 km/h (6 Bft)
18.01.2018 21:00 3,3 C 92 % 1005,8 hPa 0,0 l/m 21,0 km/h (4 Bft) SW 232 2,1 C -5,8 C 24,1 km/h (4 Bft)
18.01.2018 20:55 3,3 C 93 % 1005,9 hPa 0,0 l/m 25,7 km/h (4 Bft) W-SW 247 2,3 C -7,5 C 35,4 km/h (5 Bft)
18.01.2018 20:50 3,3 C 93 % 1005,8 hPa 0,0 l/m 25,7 km/h (4 Bft) W-SW 247 2,3 C -7,5 C 33,8 km/h (5 Bft)
18.01.2018 20:45 3,3 C 93 % 1005,9 hPa 0,0 l/m 28,9 km/h (5 Bft) W-SW 239 2,3 C -8,5 C 40,2 km/h (6 Bft)
18.01.2018 20:40 3,2 C 93 % 1006,0 hPa 0,0 l/m 31,5 km/h (5 Bft) W-SW 256 2,2 C -9,3 C 45,1 km/h (6 Bft)
18.01.2018 20:35 3,1 C 93 % 1005,9 hPa 0,0 l/m 30,8 km/h (5 Bft) W-SW 258 2,1 C -9,3 C 48,3 km/h (6 Bft)
18.01.2018 20:30 3,0 C 93 % 1005,7 hPa 0,0 l/m 32,2 km/h (5 Bft) W-SW 250 2,0 C -9,8 C 46,7 km/h (6 Bft)
18.01.2018 20:25 3,1 C 93 % 1005,7 hPa 0,2 l/m 31,5 km/h (5 Bft) W 264 2,1 C -9,4 C 46,7 km/h (6 Bft)
18.01.2018 20:20 3,2 C 92 % 1005,9 hPa 0,2 l/m 32,3 km/h (5 Bft) W-SW 250 2,0 C -9,5 C 41,8 km/h (6 Bft)
18.01.2018 20:15 3,2 C 92 % 1006,1 hPa 0,2 l/m 36,0 km/h (5 Bft) W-SW 257 2,0 C -10,4 C 49,9 km/h (7 Bft)
18.01.2018 20:10 3,3 C 92 % 1005,9 hPa 0,2 l/m 34,4 km/h (5 Bft) W-SW 253 2,1 C -9,9 C 51,5 km/h (7 Bft)